Antis, Pennsylvania
Current Conditions -  °F | °C
As of 12:53 AM on Sunday 23 Nov 2014 (Local Time) from KAOO Reporting Station
Overcast Overcast  
Wind Chill:   Ceiling: 9500
Heat Index:   Visibility: 10mi
Dew Point: -2°   Wind: 8mph
Humidity: 63%   Direction: 280°W
Pressure: 30.12"   Gusts: NA
Location:  40.6274°N, 78.3392°W
Report Text: KAOO 230553Z AUTO 28007KT 10SM OVC095 04/M02 A3012 RMK AO2 SLP211 T00441022 10067 20028 55008
Loading
Personal Weather Stations






























Interactive Weather Map New forecast layout! Learn more

10-Day Weather Forecast

Advertisements
Track Severe Weather on mobile